sensor_id;sensor_type;location;lat;lon;timestamp;temperature;humidity
15615;DHT22;7907;51.368;6.730;2022-11-15T00:00:47;11.20;99.90
15615;DHT22;7907;51.368;6.730;2022-11-15T00:03:14;11.30;99.90
15615;DHT22;7907;51.368;6.730;2022-11-15T00:05:41;11.30;99.90
15615;DHT22;7907;51.368;6.730;2022-11-15T00:08:09;11.30;99.90
15615;DHT22;7907;51.368;6.730;2022-11-15T00:10:37;11.30;99.90
15615;DHT22;7907;51.368;6.730;2022-11-15T00:13:05;11.30;99.90
15615;DHT22;7907;51.368;6.730;2022-11-15T00:15:36;11.30;99.90
15615;DHT22;7907;51.368;6.730;2022-11-15T00:18:03;11.40;99.90
15615;DHT22;7907;51.368;6.730;2022-11-15T00:20:30;11.40;99.90
15615;DHT22;7907;51.368;6.730;2022-11-15T00:22:57;11.40;99.90
15615;DHT22;7907;51.368;6.730;2022-11-15T00:25:25;11.50;99.90
15615;DHT22;7907;51.368;6.730;2022-11-15T00:27:55;11.50;99.90
15615;DHT22;7907;51.368;6.730;2022-11-15T00:30:23;11.50;99.90
15615;DHT22;7907;51.368;6.730;2022-11-15T00:32:51;11.50;99.90
15615;DHT22;7907;51.368;6.730;2022-11-15T00:35:19;11.50;99.90
15615;DHT22;7907;51.368;6.730;2022-11-15T00:37:46;11.50;99.90
15615;DHT22;7907;51.368;6.730;2022-11-15T00:40:14;11.60;99.90
15615;DHT22;7907;51.368;6.730;2022-11-15T00:42:41;11.60;99.90
15615;DHT22;7907;51.368;6.730;2022-11-15T00:45:09;11.60;99.90
15615;DHT22;7907;51.368;6.730;2022-11-15T00:47:36;11.70;99.90
15615;DHT22;7907;51.368;6.730;2022-11-15T00:50:05;11.70;99.90
15615;DHT22;7907;51.368;6.730;2022-11-15T00:52:33;11.70;99.90
15615;DHT22;7907;51.368;6.730;2022-11-15T00:55:04;11.80;99.90
15615;DHT22;7907;51.368;6.730;2022-11-15T00:57:32;11.80;99.90
15615;DHT22;7907;51.368;6.730;2022-11-15T00:59:59;11.80;99.90
15615;DHT22;7907;51.368;6.730;2022-11-15T01:02:26;11.80;99.90
15615;DHT22;7907;51.368;6.730;2022-11-15T01:04:53;11.80;99.90
15615;DHT22;7907;51.368;6.730;2022-11-15T01:07:22;11.90;99.90
15615;DHT22;7907;51.368;6.730;2022-11-15T01:09:49;11.90;99.90
15615;DHT22;7907;51.368;6.730;2022-11-15T01:12:16;11.90;99.90
15615;DHT22;7907;51.368;6.730;2022-11-15T01:14:43;11.90;99.90
15615;DHT22;7907;51.368;6.730;2022-11-15T01:17:10;12.00;99.90
15615;DHT22;7907;51.368;6.730;2022-11-15T01:19:37;12.00;99.90
15615;DHT22;7907;51.368;6.730;2022-11-15T01:22:04;12.00;99.90
15615;DHT22;7907;51.368;6.730;2022-11-15T01:24:33;12.00;99.90
15615;DHT22;7907;51.368;6.730;2022-11-15T01:27:01;12.00;99.90
15615;DHT22;7907;51.368;6.730;2022-11-15T01:29:28;12.00;99.90
15615;DHT22;7907;51.368;6.730;2022-11-15T01:31:55;12.10;99.90
15615;DHT22;7907;51.368;6.730;2022-11-15T01:34:22;12.10;99.90
15615;DHT22;7907;51.368;6.730;2022-11-15T01:36:49;12.10;99.90
15615;DHT22;7907;51.368;6.730;2022-11-15T01:39:16;12.10;99.90
15615;DHT22;7907;51.368;6.730;2022-11-15T01:41:45;12.20;99.90
15615;DHT22;7907;51.368;6.730;2022-11-15T01:44:36;12.20;99.90
15615;DHT22;7907;51.368;6.730;2022-11-15T01:47:09;12.20;99.90
15615;DHT22;7907;51.368;6.730;2022-11-15T01:49:40;12.20;99.90
15615;DHT22;7907;51.368;6.730;2022-11-15T01:52:11;12.20;99.90
15615;DHT22;7907;51.368;6.730;2022-11-15T01:54:40;12.20;99.90
15615;DHT22;7907;51.368;6.730;2022-11-15T01:57:10;12.20;99.90
15615;DHT22;7907;51.368;6.730;2022-11-15T01:59:43;12.30;99.90
15615;DHT22;7907;51.368;6.730;2022-11-15T02:02:11;12.30;99.90
15615;DHT22;7907;51.368;6.730;2022-11-15T02:04:41;12.30;99.90
15615;DHT22;7907;51.368;6.730;2022-11-15T02:07:10;12.30;99.90
15615;DHT22;7907;51.368;6.730;2022-11-15T02:09:38;12.30;99.90
15615;DHT22;7907;51.368;6.730;2022-11-15T02:12:09;12.30;99.90
15615;DHT22;7907;51.368;6.730;2022-11-15T02:14:38;12.30;99.90
15615;DHT22;7907;51.368;6.730;2022-11-15T02:17:25;12.30;99.90
15615;DHT22;7907;51.368;6.730;2022-11-15T02:20:14;12.30;99.90
15615;DHT22;7907;51.368;6.730;2022-11-15T02:22:58;12.30;99.90
15615;DHT22;7907;51.368;6.730;2022-11-15T02:25:40;12.30;99.90
15615;DHT22;7907;51.368;6.730;2022-11-15T02:28:33;12.40;99.90
15615;DHT22;7907;51.368;6.730;2022-11-15T02:31:10;12.40;99.90
15615;DHT22;7907;51.368;6.730;2022-11-15T02:33:43;12.30;99.90
15615;DHT22;7907;51.368;6.730;2022-11-15T02:36:17;12.50;99.90
15615;DHT22;7907;51.368;6.730;2022-11-15T02:38:50;12.40;99.90
15615;DHT22;7907;51.368;6.730;2022-11-15T02:41:25;12.50;99.90
15615;DHT22;7907;51.368;6.730;2022-11-15T02:44:01;12.50;99.90
15615;DHT22;7907;51.368;6.730;2022-11-15T02:46:34;12.50;99.90
15615;DHT22;7907;51.368;6.730;2022-11-15T02:49:20;12.50;99.90
15615;DHT22;7907;51.368;6.730;2022-11-15T02:51:49;12.60;99.90
15615;DHT22;7907;51.368;6.730;2022-11-15T02:54:21;12.50;99.90
15615;DHT22;7907;51.368;6.730;2022-11-15T02:56:50;12.60;99.90
15615;DHT22;7907;51.368;6.730;2022-11-15T02:59:59;12.60;99.90
15615;DHT22;7907;51.368;6.730;2022-11-15T03:02:42;12.60;99.90
15615;DHT22;7907;51.368;6.730;2022-11-15T03:05:22;12.60;99.90
15615;DHT22;7907;51.368;6.730;2022-11-15T03:07:56;12.60;99.90
15615;DHT22;7907;51.368;6.730;2022-11-15T03:10:36;12.60;99.90
15615;DHT22;7907;51.368;6.730;2022-11-15T03:13:15;12.70;99.90
15615;DHT22;7907;51.368;6.730;2022-11-15T03:15:48;12.70;99.90
15615;DHT22;7907;51.368;6.730;2022-11-15T03:18:23;12.70;99.90
15615;DHT22;7907;51.368;6.730;2022-11-15T03:20:53;12.80;99.90
15615;DHT22;7907;51.368;6.730;2022-11-15T03:23:21;12.70;99.90
15615;DHT22;7907;51.368;6.730;2022-11-15T03:25:50;12.70;99.90
15615;DHT22;7907;51.368;6.730;2022-11-15T03:28:21;12.70;99.90
15615;DHT22;7907;51.368;6.730;2022-11-15T03:30:50;12.80;99.90
15615;DHT22;7907;51.368;6.730;2022-11-15T03:33:21;12.80;99.90
15615;DHT22;7907;51.368;6.730;2022-11-15T03:35:50;12.80;99.90
15615;DHT22;7907;51.368;6.730;2022-11-15T03:38:22;12.80;99.90
15615;DHT22;7907;51.368;6.730;2022-11-15T03:40:55;12.90;99.90
15615;DHT22;7907;51.368;6.730;2022-11-15T03:43:30;12.90;99.90
15615;DHT22;7907;51.368;6.730;2022-11-15T03:46:02;12.90;99.90
15615;DHT22;7907;51.368;6.730;2022-11-15T03:48:35;12.90;99.90
15615;DHT22;7907;51.368;6.730;2022-11-15T03:51:05;12.90;99.90
15615;DHT22;7907;51.368;6.730;2022-11-15T03:53:32;12.90;99.90
15615;DHT22;7907;51.368;6.730;2022-11-15T03:56:00;12.90;99.90
15615;DHT22;7907;51.368;6.730;2022-11-15T03:58:28;12.90;99.90
15615;DHT22;7907;51.368;6.730;2022-11-15T04:00:55;13.00;99.90
15615;DHT22;7907;51.368;6.730;2022-11-15T04:03:22;13.00;99.90
15615;DHT22;7907;51.368;6.730;2022-11-15T04:05:51;13.00;99.90
15615;DHT22;7907;51.368;6.730;2022-11-15T04:08:36;13.00;99.90
15615;DHT22;7907;51.368;6.730;2022-11-15T04:11:03;13.10;99.90
15615;DHT22;7907;51.368;6.730;2022-11-15T04:13:30;13.00;99.90
15615;DHT22;7907;51.368;6.730;2022-11-15T04:15:57;13.00;99.90
15615;DHT22;7907;51.368;6.730;2022-11-15T04:18:24;13.10;99.90
15615;DHT22;7907;51.368;6.730;2022-11-15T04:20:53;13.10;99.90
15615;DHT22;7907;51.368;6.730;2022-11-15T04:23:37;13.10;99.90
15615;DHT22;7907;51.368;6.730;2022-11-15T04:26:27;13.10;99.90
15615;DHT22;7907;51.368;6.730;2022-11-15T04:28:54;13.20;99.90
15615;DHT22;7907;51.368;6.730;2022-11-15T04:31:38;13.10;99.90
15615;DHT22;7907;51.368;6.730;2022-11-15T04:34:06;13.10;99.90
15615;DHT22;7907;51.368;6.730;2022-11-15T04:36:35;13.20;99.90
15615;DHT22;7907;51.368;6.730;2022-11-15T04:39:19;13.10;99.90
15615;DHT22;7907;51.368;6.730;2022-11-15T04:41:46;13.10;99.90
15615;DHT22;7907;51.368;6.730;2022-11-15T04:44:14;13.10;99.90
15615;DHT22;7907;51.368;6.730;2022-11-15T04:46:41;13.10;99.90
15615;DHT22;7907;51.368;6.730;2022-11-15T04:49:09;13.20;99.90
15615;DHT22;7907;51.368;6.730;2022-11-15T04:51:37;13.10;99.90
15615;DHT22;7907;51.368;6.730;2022-11-15T04:54:04;13.20;99.90
15615;DHT22;7907;51.368;6.730;2022-11-15T04:56:32;13.20;99.90
15615;DHT22;7907;51.368;6.730;2022-11-15T04:58:59;13.20;99.90
15615;DHT22;7907;51.368;6.730;2022-11-15T05:01:27;13.20;99.90
15615;DHT22;7907;51.368;6.730;2022-11-15T05:03:54;13.20;99.90
15615;DHT22;7907;51.368;6.730;2022-11-15T05:06:40;13.20;99.90
15615;DHT22;7907;51.368;6.730;2022-11-15T05:09:07;13.20;99.90
15615;DHT22;7907;51.368;6.730;2022-11-15T05:11:34;13.30;99.90
15615;DHT22;7907;51.368;6.730;2022-11-15T05:14:02;13.30;99.90
15615;DHT22;7907;51.368;6.730;2022-11-15T05:16:29;13.20;99.90
15615;DHT22;7907;51.368;6.730;2022-11-15T05:18:56;13.30;99.90
15615;DHT22;7907;51.368;6.730;2022-11-15T05:21:23;13.20;99.90
15615;DHT22;7907;51.368;6.730;2022-11-15T05:23:52;13.20;99.90
15615;DHT22;7907;51.368;6.730;2022-11-15T05:26:20;13.20;99.90
15615;DHT22;7907;51.368;6.730;2022-11-15T05:28:51;13.30;99.90
15615;DHT22;7907;51.368;6.730;2022-11-15T05:31:18;13.20;99.90
15615;DHT22;7907;51.368;6.730;2022-11-15T05:33:45;13.20;99.90
15615;DHT22;7907;51.368;6.730;2022-11-15T05:36:16;13.20;99.90
15615;DHT22;7907;51.368;6.730;2022-11-15T05:38:43;13.20;99.90
15615;DHT22;7907;51.368;6.730;2022-11-15T05:41:13;13.20;99.90
15615;DHT22;7907;51.368;6.730;2022-11-15T05:43:42;13.20;99.90
15615;DHT22;7907;51.368;6.730;2022-11-15T05:46:10;13.10;99.90
15615;DHT22;7907;51.368;6.730;2022-11-15T05:48:41;13.20;99.90
15615;DHT22;7907;51.368;6.730;2022-11-15T05:51:12;13.20;99.90
15615;DHT22;7907;51.368;6.730;2022-11-15T05:53:41;13.20;99.90
15615;DHT22;7907;51.368;6.730;2022-11-15T05:56:09;13.20;99.90
15615;DHT22;7907;51.368;6.730;2022-11-15T05:58:38;13.20;99.90
15615;DHT22;7907;51.368;6.730;2022-11-15T06:01:06;13.20;99.90
15615;DHT22;7907;51.368;6.730;2022-11-15T06:03:33;13.20;99.90
15615;DHT22;7907;51.368;6.730;2022-11-15T06:06:00;13.20;99.90
15615;DHT22;7907;51.368;6.730;2022-11-15T06:08:28;13.20;99.90
15615;DHT22;7907;51.368;6.730;2022-11-15T06:10:55;13.20;99.90
15615;DHT22;7907;51.368;6.730;2022-11-15T06:13:22;13.20;99.90
15615;DHT22;7907;51.368;6.730;2022-11-15T06:15:55;13.30;99.90
15615;DHT22;7907;51.368;6.730;2022-11-15T06:18:22;13.20;99.90
15615;DHT22;7907;51.368;6.730;2022-11-15T06:20:49;13.20;99.90
15615;DHT22;7907;51.368;6.730;2022-11-15T06:23:16;13.20;99.90
15615;DHT22;7907;51.368;6.730;2022-11-15T06:25:44;13.20;99.90
15615;DHT22;7907;51.368;6.730;2022-11-15T06:28:11;13.20;99.90
15615;DHT22;7907;51.368;6.730;2022-11-15T06:30:38;13.20;99.90
15615;DHT22;7907;51.368;6.730;2022-11-15T06:33:07;13.10;99.90
15615;DHT22;7907;51.368;6.730;2022-11-15T06:35:35;13.20;99.90
15615;DHT22;7907;51.368;6.730;2022-11-15T06:38:05;13.20;99.90
15615;DHT22;7907;51.368;6.730;2022-11-15T06:40:34;13.20;99.90
15615;DHT22;7907;51.368;6.730;2022-11-15T06:43:08;13.20;99.90
15615;DHT22;7907;51.368;6.730;2022-11-15T06:45:35;13.20;99.90
15615;DHT22;7907;51.368;6.730;2022-11-15T06:48:03;13.30;99.90
15615;DHT22;7907;51.368;6.730;2022-11-15T06:50:32;13.30;99.90
15615;DHT22;7907;51.368;6.730;2022-11-15T06:53:03;13.30;99.90
15615;DHT22;7907;51.368;6.730;2022-11-15T06:55:30;13.20;99.90
15615;DHT22;7907;51.368;6.730;2022-11-15T06:57:57;13.30;99.90
15615;DHT22;7907;51.368;6.730;2022-11-15T07:00:25;13.30;99.90
15615;DHT22;7907;51.368;6.730;2022-11-15T07:02:53;13.30;99.90
15615;DHT22;7907;51.368;6.730;2022-11-15T07:05:20;13.30;99.90
15615;DHT22;7907;51.368;6.730;2022-11-15T07:07:53;13.30;99.90
15615;DHT22;7907;51.368;6.730;2022-11-15T07:10:20;13.30;99.90
15615;DHT22;7907;51.368;6.730;2022-11-15T07:12:49;13.30;99.90
15615;DHT22;7907;51.368;6.730;2022-11-15T07:15:17;13.30;99.90
15615;DHT22;7907;51.368;6.730;2022-11-15T07:17:45;13.30;99.90
15615;DHT22;7907;51.368;6.730;2022-11-15T07:20:13;13.40;99.90
15615;DHT22;7907;51.368;6.730;2022-11-15T07:22:41;13.30;99.90
15615;DHT22;7907;51.368;6.730;2022-11-15T07:25:12;13.40;99.90
15615;DHT22;7907;51.368;6.730;2022-11-15T07:27:40;13.40;99.90
15615;DHT22;7907;51.368;6.730;2022-11-15T07:30:08;13.40;99.90
15615;DHT22;7907;51.368;6.730;2022-11-15T07:32:35;13.40;99.90
15615;DHT22;7907;51.368;6.730;2022-11-15T07:35:03;13.40;99.90
15615;DHT22;7907;51.368;6.730;2022-11-15T07:37:31;13.40;99.90
15615;DHT22;7907;51.368;6.730;2022-11-15T07:39:58;13.40;99.90
15615;DHT22;7907;51.368;6.730;2022-11-15T07:42:27;13.40;99.90
15615;DHT22;7907;51.368;6.730;2022-11-15T07:45:26;13.40;99.90
15615;DHT22;7907;51.368;6.730;2022-11-15T07:47:54;13.40;99.90
15615;DHT22;7907;51.368;6.730;2022-11-15T07:50:23;13.40;99.90
15615;DHT22;7907;51.368;6.730;2022-11-15T07:52:54;13.40;99.90
15615;DHT22;7907;51.368;6.730;2022-11-15T07:55:22;13.40;99.90
15615;DHT22;7907;51.368;6.730;2022-11-15T07:57:51;13.30;99.90
15615;DHT22;7907;51.368;6.730;2022-11-15T08:00:31;13.10;99.90
15615;DHT22;7907;51.368;6.730;2022-11-15T08:03:03;13.00;99.90
15615;DHT22;7907;51.368;6.730;2022-11-15T08:05:30;12.90;99.90
15615;DHT22;7907;51.368;6.730;2022-11-15T08:07:58;12.80;99.90
15615;DHT22;7907;51.368;6.730;2022-11-15T08:10:25;12.70;99.90
15615;DHT22;7907;51.368;6.730;2022-11-15T08:13:02;12.70;99.90
15615;DHT22;7907;51.368;6.730;2022-11-15T08:15:30;12.70;99.90
15615;DHT22;7907;51.368;6.730;2022-11-15T08:17:59;12.70;99.90
15615;DHT22;7907;51.368;6.730;2022-11-15T08:20:27;12.70;99.90
15615;DHT22;7907;51.368;6.730;2022-11-15T08:22:57;12.70;99.90
15615;DHT22;7907;51.368;6.730;2022-11-15T08:25:25;12.70;99.90
15615;DHT22;7907;51.368;6.730;2022-11-15T08:27:53;12.70;99.90
15615;DHT22;7907;51.368;6.730;2022-11-15T08:30:23;12.70;99.90
15615;DHT22;7907;51.368;6.730;2022-11-15T08:32:51;12.70;99.90
15615;DHT22;7907;51.368;6.730;2022-11-15T08:35:20;12.80;99.90
15615;DHT22;7907;51.368;6.730;2022-11-15T08:37:47;12.70;99.90
15615;DHT22;7907;51.368;6.730;2022-11-15T08:40:17;12.80;99.90
15615;DHT22;7907;51.368;6.730;2022-11-15T08:42:46;12.80;99.90
15615;DHT22;7907;51.368;6.730;2022-11-15T08:45:14;12.90;99.90
15615;DHT22;7907;51.368;6.730;2022-11-15T08:47:43;12.90;99.90
15615;DHT22;7907;51.368;6.730;2022-11-15T08:50:10;12.90;99.90
15615;DHT22;7907;51.368;6.730;2022-11-15T08:52:37;12.90;99.90
15615;DHT22;7907;51.368;6.730;2022-11-15T08:55:06;13.00;99.90
15615;DHT22;7907;51.368;6.730;2022-11-15T08:57:33;13.00;99.90
15615;DHT22;7907;51.368;6.730;2022-11-15T09:00:01;12.90;99.90
15615;DHT22;7907;51.368;6.730;2022-11-15T09:02:28;13.00;99.90
15615;DHT22;7907;51.368;6.730;2022-11-15T09:04:58;13.00;99.90
15615;DHT22;7907;51.368;6.730;2022-11-15T09:07:25;13.10;99.90
15615;DHT22;7907;51.368;6.730;2022-11-15T09:09:55;13.10;99.90
15615;DHT22;7907;51.368;6.730;2022-11-15T09:12:22;13.20;99.90
15615;DHT22;7907;51.368;6.730;2022-11-15T09:14:49;13.40;99.90
15615;DHT22;7907;51.368;6.730;2022-11-15T09:17:16;13.50;99.90
15615;DHT22;7907;51.368;6.730;2022-11-15T09:19:43;13.60;99.90
15615;DHT22;7907;51.368;6.730;2022-11-15T09:22:12;13.70;99.90
15615;DHT22;7907;51.368;6.730;2022-11-15T09:24:39;13.80;99.90
15615;DHT22;7907;51.368;6.730;2022-11-15T09:27:06;13.80;99.90
15615;DHT22;7907;51.368;6.730;2022-11-15T09:29:37;13.80;99.90
15615;DHT22;7907;51.368;6.730;2022-11-15T09:32:05;13.90;99.90
15615;DHT22;7907;51.368;6.730;2022-11-15T09:34:32;13.90;99.90
15615;DHT22;7907;51.368;6.730;2022-11-15T09:37:00;13.90;99.90
15615;DHT22;7907;51.368;6.730;2022-11-15T09:39:29;13.90;99.90
15615;DHT22;7907;51.368;6.730;2022-11-15T09:42:20;13.90;99.90
15615;DHT22;7907;51.368;6.730;2022-11-15T09:45:05;13.90;99.90
15615;DHT22;7907;51.368;6.730;2022-11-15T09:50:31;14.10;99.90
15615;DHT22;7907;51.368;6.730;2022-11-15T09:52:58;14.00;99.90
15615;DHT22;7907;51.368;6.730;2022-11-15T09:55:37;14.00;99.90
15615;DHT22;7907;51.368;6.730;2022-11-15T09:58:16;14.10;99.90
15615;DHT22;7907;51.368;6.730;2022-11-15T10:00:48;14.10;99.90
15615;DHT22;7907;51.368;6.730;2022-11-15T10:03:25;14.00;99.90
15615;DHT22;7907;51.368;6.730;2022-11-15T10:05:55;14.10;99.90
15615;DHT22;7907;51.368;6.730;2022-11-15T10:08:35;14.10;99.90
15615;DHT22;7907;51.368;6.730;2022-11-15T10:11:09;14.10;99.90
15615;DHT22;7907;51.368;6.730;2022-11-15T10:13:41;14.10;99.90
15615;DHT22;7907;51.368;6.730;2022-11-15T10:16:22;14.10;99.90
15615;DHT22;7907;51.368;6.730;2022-11-15T10:18:56;14.10;99.90
15615;DHT22;7907;51.368;6.730;2022-11-15T10:21:37;14.10;99.90
15615;DHT22;7907;51.368;6.730;2022-11-15T10:24:11;14.20;99.90
15615;DHT22;7907;51.368;6.730;2022-11-15T10:26:46;14.20;99.90
15615;DHT22;7907;51.368;6.730;2022-11-15T10:29:18;14.20;99.90
15615;DHT22;7907;51.368;6.730;2022-11-15T10:31:46;14.30;99.90
15615;DHT22;7907;51.368;6.730;2022-11-15T10:34:16;14.30;99.90
15615;DHT22;7907;51.368;6.730;2022-11-15T10:36:45;14.30;99.90
15615;DHT22;7907;51.368;6.730;2022-11-15T10:39:13;14.40;99.90
15615;DHT22;7907;51.368;6.730;2022-11-15T10:41:42;14.50;99.90
15615;DHT22;7907;51.368;6.730;2022-11-15T10:44:19;14.50;99.90
15615;DHT22;7907;51.368;6.730;2022-11-15T10:46:49;14.50;99.90
15615;DHT22;7907;51.368;6.730;2022-11-15T10:49:31;14.50;99.90
15615;DHT22;7907;51.368;6.730;2022-11-15T10:52:00;14.50;99.90
15615;DHT22;7907;51.368;6.730;2022-11-15T10:54:30;14.60;99.90
15615;DHT22;7907;51.368;6.730;2022-11-15T10:57:06;14.70;99.90
15615;DHT22;7907;51.368;6.730;2022-11-15T10:59:36;14.70;99.90
15615;DHT22;7907;51.368;6.730;2022-11-15T11:02:31;14.80;99.90
15615;DHT22;7907;51.368;6.730;2022-11-15T11:04:59;14.80;99.90
15615;DHT22;7907;51.368;6.730;2022-11-15T11:07:28;14.90;99.90
15615;DHT22;7907;51.368;6.730;2022-11-15T11:10:01;15.00;99.90
15615;DHT22;7907;51.368;6.730;2022-11-15T11:12:32;15.10;99.90
15615;DHT22;7907;51.368;6.730;2022-11-15T11:15:02;15.10;99.90
15615;DHT22;7907;51.368;6.730;2022-11-15T11:17:48;15.20;99.90
15615;DHT22;7907;51.368;6.730;2022-11-15T11:20:22;15.30;99.90
15615;DHT22;7907;51.368;6.730;2022-11-15T11:23:03;15.40;99.90
15615;DHT22;7907;51.368;6.730;2022-11-15T11:25:36;15.50;99.90
15615;DHT22;7907;51.368;6.730;2022-11-15T11:28:24;15.60;99.90
15615;DHT22;7907;51.368;6.730;2022-11-15T11:31:02;15.80;99.90
15615;DHT22;7907;51.368;6.730;2022-11-15T11:33:33;15.80;99.90
15615;DHT22;7907;51.368;6.730;2022-11-15T11:36:10;15.90;99.90
15615;DHT22;7907;51.368;6.730;2022-11-15T11:38:48;15.90;99.90
15615;DHT22;7907;51.368;6.730;2022-11-15T11:41:26;16.00;99.90
15615;DHT22;7907;51.368;6.730;2022-11-15T11:44:10;16.00;99.90
15615;DHT22;7907;51.368;6.730;2022-11-15T11:46:48;16.10;99.90
15615;DHT22;7907;51.368;6.730;2022-11-15T11:49:21;16.10;97.60
15615;DHT22;7907;51.368;6.730;2022-11-15T11:51:52;16.10;96.00
15615;DHT22;7907;51.368;6.730;2022-11-15T11:54:24;16.10;95.80
15615;DHT22;7907;51.368;6.730;2022-11-15T11:56:55;16.10;96.40
15615;DHT22;7907;51.368;6.730;2022-11-15T11:59:33;16.10;95.30
15615;DHT22;7907;51.368;6.730;2022-11-15T12:02:14;16.10;94.50
15615;DHT22;7907;51.368;6.730;2022-11-15T12:04:45;16.20;93.20
15615;DHT22;7907;51.368;6.730;2022-11-15T12:07:19;16.30;92.50
15615;DHT22;7907;51.368;6.730;2022-11-15T12:09:55;16.30;91.30
15615;DHT22;7907;51.368;6.730;2022-11-15T12:12:31;16.30;90.90
15615;DHT22;7907;51.368;6.730;2022-11-15T12:15:03;16.40;90.20
15615;DHT22;7907;51.368;6.730;2022-11-15T12:17:32;16.50;90.10
15615;DHT22;7907;51.368;6.730;2022-11-15T12:20:02;16.60;89.40
15615;DHT22;7907;51.368;6.730;2022-11-15T12:22:37;16.70;88.40
15615;DHT22;7907;51.368;6.730;2022-11-15T12:25:13;16.80;89.40
15615;DHT22;7907;51.368;6.730;2022-11-15T12:27:44;16.80;86.10
15615;DHT22;7907;51.368;6.730;2022-11-15T12:30:17;16.80;84.00
15615;DHT22;7907;51.368;6.730;2022-11-15T12:32:51;16.80;82.40
15615;DHT22;7907;51.368;6.730;2022-11-15T12:35:34;16.90;83.80
15615;DHT22;7907;51.368;6.730;2022-11-15T12:38:01;17.10;82.60
15615;DHT22;7907;51.368;6.730;2022-11-15T12:40:34;17.30;81.60
15615;DHT22;7907;51.368;6.730;2022-11-15T12:46:19;17.70;79.70
15615;DHT22;7907;51.368;6.730;2022-11-15T12:48:55;17.90;78.20
15615;DHT22;7907;51.368;6.730;2022-11-15T12:55:06;18.30;76.30
15615;DHT22;7907;51.368;6.730;2022-11-15T12:57:49;18.40;75.10
15615;DHT22;7907;51.368;6.730;2022-11-15T13:00:43;18.60;74.50
15615;DHT22;7907;51.368;6.730;2022-11-15T13:03:26;18.70;74.00
15615;DHT22;7907;51.368;6.730;2022-11-15T13:06:08;18.80;73.30
15615;DHT22;7907;51.368;6.730;2022-11-15T13:08:48;19.00;73.10
15615;DHT22;7907;51.368;6.730;2022-11-15T13:11:50;19.30;73.10
15615;DHT22;7907;51.368;6.730;2022-11-15T13:14:47;19.40;72.30
15615;DHT22;7907;51.368;6.730;2022-11-15T13:17:30;19.20;71.60
15615;DHT22;7907;51.368;6.730;2022-11-15T13:22:45;18.80;73.00
15615;DHT22;7907;51.368;6.730;2022-11-15T13:25:46;18.50;73.90
15615;DHT22;7907;51.368;6.730;2022-11-15T13:28:22;18.30;74.70
15615;DHT22;7907;51.368;6.730;2022-11-15T13:30:52;18.10;76.10
15615;DHT22;7907;51.368;6.730;2022-11-15T13:33:23;17.90;76.60
15615;DHT22;7907;51.368;6.730;2022-11-15T13:35:54;17.80;77.80
15615;DHT22;7907;51.368;6.730;2022-11-15T13:38:27;17.70;78.70
15615;DHT22;7907;51.368;6.730;2022-11-15T13:40:56;17.60;78.30
15615;DHT22;7907;51.368;6.730;2022-11-15T13:43:31;17.50;79.50
15615;DHT22;7907;51.368;6.730;2022-11-15T13:46:12;17.50;79.20
15615;DHT22;7907;51.368;6.730;2022-11-15T13:48:44;17.50;81.20
15615;DHT22;7907;51.368;6.730;2022-11-15T13:51:18;17.50;80.90
15615;DHT22;7907;51.368;6.730;2022-11-15T13:53:49;17.50;81.10
15615;DHT22;7907;51.368;6.730;2022-11-15T13:56:19;17.50;81.90
15615;DHT22;7907;51.368;6.730;2022-11-15T13:58:48;17.40;82.50
15615;DHT22;7907;51.368;6.730;2022-11-15T14:01:17;17.40;82.50
15615;DHT22;7907;51.368;6.730;2022-11-15T14:03:54;17.40;83.40
15615;DHT22;7907;51.368;6.730;2022-11-15T14:06:25;17.30;83.60
15615;DHT22;7907;51.368;6.730;2022-11-15T14:11:50;17.10;84.80
15615;DHT22;7907;51.368;6.730;2022-11-15T14:14:20;17.10;85.20
15615;DHT22;7907;51.368;6.730;2022-11-15T14:16:49;17.20;85.50
15615;DHT22;7907;51.368;6.730;2022-11-15T14:19:38;17.20;85.00
15615;DHT22;7907;51.368;6.730;2022-11-15T14:22:16;17.20;85.40
15615;DHT22;7907;51.368;6.730;2022-11-15T14:24:50;17.10;86.30
15615;DHT22;7907;51.368;6.730;2022-11-15T14:27:30;17.00;86.60
15615;DHT22;7907;51.368;6.730;2022-11-15T14:29:58;16.80;87.50
15615;DHT22;7907;51.368;6.730;2022-11-15T14:32:27;16.70;89.40
15615;DHT22;7907;51.368;6.730;2022-11-15T14:34:56;16.60;90.10
15615;DHT22;7907;51.368;6.730;2022-11-15T14:37:28;16.50;91.70
15615;DHT22;7907;51.368;6.730;2022-11-15T14:39:57;16.40;92.80
15615;DHT22;7907;51.368;6.730;2022-11-15T14:42:24;16.20;94.40
15615;DHT22;7907;51.368;6.730;2022-11-15T14:44:52;16.10;96.40
15615;DHT22;7907;51.368;6.730;2022-11-15T14:47:19;16.00;98.50
15615;DHT22;7907;51.368;6.730;2022-11-15T14:49:47;16.00;99.90
15615;DHT22;7907;51.368;6.730;2022-11-15T14:52:26;15.90;99.90
15615;DHT22;7907;51.368;6.730;2022-11-15T14:54:54;15.80;99.90
15615;DHT22;7907;51.368;6.730;2022-11-15T14:57:23;15.80;99.90
15615;DHT22;7907;51.368;6.730;2022-11-15T14:59:51;15.70;99.90
15615;DHT22;7907;51.368;6.730;2022-11-15T15:02:20;15.60;99.90
15615;DHT22;7907;51.368;6.730;2022-11-15T15:04:48;15.60;99.90
15615;DHT22;7907;51.368;6.730;2022-11-15T15:07:16;15.50;99.90
15615;DHT22;7907;51.368;6.730;2022-11-15T15:09:46;15.50;99.90
15615;DHT22;7907;51.368;6.730;2022-11-15T15:12:16;15.50;99.90
15615;DHT22;7907;51.368;6.730;2022-11-15T15:14:44;15.40;99.90
15615;DHT22;7907;51.368;6.730;2022-11-15T15:17:12;15.30;99.90
15615;DHT22;7907;51.368;6.730;2022-11-15T15:19:39;15.30;99.90
15615;DHT22;7907;51.368;6.730;2022-11-15T15:22:14;15.30;99.90
15615;DHT22;7907;51.368;6.730;2022-11-15T15:24:42;15.20;99.90
15615;DHT22;7907;51.368;6.730;2022-11-15T15:27:11;15.20;99.90
15615;DHT22;7907;51.368;6.730;2022-11-15T15:29:40;15.20;99.90
15615;DHT22;7907;51.368;6.730;2022-11-15T15:32:08;15.10;99.90
15615;DHT22;7907;51.368;6.730;2022-11-15T15:34:35;15.10;99.90
15615;DHT22;7907;51.368;6.730;2022-11-15T15:37:21;15.00;99.90
15615;DHT22;7907;51.368;6.730;2022-11-15T15:39:49;15.00;99.90
15615;DHT22;7907;51.368;6.730;2022-11-15T15:42:19;14.90;99.90
15615;DHT22;7907;51.368;6.730;2022-11-15T15:44:46;14.90;99.90
15615;DHT22;7907;51.368;6.730;2022-11-15T15:47:16;14.90;99.90
15615;DHT22;7907;51.368;6.730;2022-11-15T15:49:44;14.90;99.90
15615;DHT22;7907;51.368;6.730;2022-11-15T15:52:12;14.80;99.90
15615;DHT22;7907;51.368;6.730;2022-11-15T15:54:40;14.80;99.90
15615;DHT22;7907;51.368;6.730;2022-11-15T15:57:10;14.80;99.90
15615;DHT22;7907;51.368;6.730;2022-11-15T15:59:43;14.80;99.90
15615;DHT22;7907;51.368;6.730;2022-11-15T16:02:14;14.80;99.90
15615;DHT22;7907;51.368;6.730;2022-11-15T16:04:41;14.80;99.90
15615;DHT22;7907;51.368;6.730;2022-11-15T16:07:21;14.70;99.90
15615;DHT22;7907;51.368;6.730;2022-11-15T16:09:49;14.70;99.90
15615;DHT22;7907;51.368;6.730;2022-11-15T16:12:29;14.70;99.90
15615;DHT22;7907;51.368;6.730;2022-11-15T16:14:58;14.70;99.90
15615;DHT22;7907;51.368;6.730;2022-11-15T16:17:28;14.70;99.90
15615;DHT22;7907;51.368;6.730;2022-11-15T16:19:55;14.70;99.90
15615;DHT22;7907;51.368;6.730;2022-11-15T16:22:22;14.60;99.90
15615;DHT22;7907;51.368;6.730;2022-11-15T16:24:49;14.70;99.90
15615;DHT22;7907;51.368;6.730;2022-11-15T16:27:18;14.60;99.90